TCOEU LTBU-LTBU
Flight info
| Callsign | TCOEU |
|---|---|
| Flight time | 0h 25m |
| Altitude | 3000 |
| Route | CRL CEK IST |
| Aircraft | DV20/L-V/N |
Departure
| Time | 2026-04-28 20:21 |
|---|---|
| Airport | Tekirdağ Çorlu Airport (LTBU) |
Arrival
| Time | 2026-04-28 20:46 |
|---|---|
| Airport | Tekirdağ Çorlu Airport (LTBU) |
| Time | Latitude | Longitude | Altitude | Speed | Heading |
|---|---|---|---|---|---|
| 2026-04-28 20:10 | 41.13091 | 27.91261 | 519 ft | 0 kts | 147° |
| 2026-04-28 20:18 | 41.13082 | 27.91271 | 519 ft | 1 kts | 112° |
| 2026-04-28 20:18 | 41.13101 | 27.91309 | 519 ft | 9 kts | 29° |
| 2026-04-28 20:18 | 41.13188 | 27.91292 | 519 ft | 15 kts | 334° |
| 2026-04-28 20:18 | 41.13240 | 27.91249 | 520 ft | 5 kts | 317° |
| 2026-04-28 20:19 | 41.13255 | 27.91234 | 520 ft | 0 kts | 317° |
| 2026-04-28 20:19 | 41.13255 | 27.91233 | 520 ft | 1 kts | 317° |
| 2026-04-28 20:19 | 41.13256 | 27.91232 | 520 ft | 0 kts | 319° |
| 2026-04-28 20:20 | 41.13283 | 27.91204 | 521 ft | 8 kts | 328° |
| 2026-04-28 20:20 | 41.13359 | 27.91184 | 522 ft | 14 kts | 26° |
| 2026-04-28 20:20 | 41.13506 | 27.91395 | 524 ft | 53 kts | 48° |
| 2026-04-28 20:20 | 41.13805 | 27.91827 | 637 ft | 67 kts | 39° |
| 2026-04-28 20:21 | 41.14167 | 27.92218 | 857 ft | 65 kts | 30° |
| 2026-04-28 20:21 | 41.14558 | 27.92586 | 1046 ft | 70 kts | 33° |
| 2026-04-28 20:21 | 41.15028 | 27.92913 | 1192 ft | 81 kts | 19° |
| 2026-04-28 20:21 | 41.15597 | 27.92882 | 1485 ft | 82 kts | 349° |
| 2026-04-28 20:22 | 41.16149 | 27.92614 | 1706 ft | 88 kts | 341° |
| 2026-04-28 20:22 | 41.16699 | 27.92218 | 1868 ft | 93 kts | 334° |
| 2026-04-28 20:22 | 41.17242 | 27.91699 | 2022 ft | 102 kts | 324° |
| 2026-04-28 20:22 | 41.17860 | 27.91103 | 1998 ft | 116 kts | 331° |
| 2026-04-28 20:23 | 41.18581 | 27.90453 | 1995 ft | 122 kts | 331° |
| 2026-04-28 20:23 | 41.19297 | 27.89810 | 1996 ft | 126 kts | 330° |
| 2026-04-28 20:23 | 41.20001 | 27.89104 | 1998 ft | 128 kts | 327° |
| 2026-04-28 20:23 | 41.20707 | 27.88383 | 1996 ft | 129 kts | 327° |
| 2026-04-28 20:24 | 41.21417 | 27.87658 | 1994 ft | 128 kts | 327° |
| 2026-04-28 20:24 | 41.22086 | 27.86974 | 1995 ft | 128 kts | 327° |
| 2026-04-28 20:24 | 41.22792 | 27.86249 | 1990 ft | 128 kts | 327° |
| 2026-04-28 20:24 | 41.23512 | 27.85509 | 1992 ft | 128 kts | 327° |
| 2026-04-28 20:25 | 41.24155 | 27.84674 | 1986 ft | 130 kts | 316° |
| 2026-04-28 20:25 | 41.24744 | 27.83769 | 1986 ft | 130 kts | 315° |
| 2026-04-28 20:25 | 41.25329 | 27.82870 | 1988 ft | 129 kts | 315° |
| 2026-04-28 20:25 | 41.25933 | 27.81971 | 1985 ft | 129 kts | 316° |
| 2026-04-28 20:26 | 41.26523 | 27.81097 | 1984 ft | 128 kts | 316° |
| 2026-04-28 20:26 | 41.27145 | 27.80221 | 1976 ft | 127 kts | 327° |
| 2026-04-28 20:26 | 41.27936 | 27.79898 | 1982 ft | 119 kts | 8° |
| 2026-04-28 20:26 | 41.28651 | 27.80356 | 1983 ft | 114 kts | 47° |
| 2026-04-28 20:27 | 41.29167 | 27.81138 | 1985 ft | 113 kts | 52° |
| 2026-04-28 20:27 | 41.29671 | 27.81945 | 1988 ft | 114 kts | 52° |
| 2026-04-28 20:27 | 41.30180 | 27.82764 | 1983 ft | 114 kts | 52° |
| 2026-04-28 20:27 | 41.30682 | 27.83571 | 1983 ft | 113 kts | 52° |
| 2026-04-28 20:28 | 41.31180 | 27.84370 | 1985 ft | 113 kts | 52° |
| 2026-04-28 20:28 | 41.31684 | 27.85182 | 1987 ft | 112 kts | 52° |
| 2026-04-28 20:28 | 41.32178 | 27.85973 | 1987 ft | 113 kts | 52° |
| 2026-04-28 20:28 | 41.32686 | 27.86788 | 1984 ft | 114 kts | 52° |
| 2026-04-28 20:29 | 41.33186 | 27.87599 | 1988 ft | 114 kts | 52° |
| 2026-04-28 20:29 | 41.33670 | 27.88385 | 1990 ft | 110 kts | 52° |
| 2026-04-28 20:29 | 41.34181 | 27.89186 | 2008 ft | 113 kts | 50° |
| 2026-04-28 20:29 | 41.34835 | 27.89601 | 1960 ft | 119 kts | 348° |
| 2026-04-28 20:30 | 41.34843 | 27.88693 | 1885 ft | 123 kts | 195° |
| 2026-04-28 20:30 | 41.34458 | 27.89241 | 1882 ft | 99 kts | 63° |
| 2026-04-28 20:30 | 41.34878 | 27.89909 | 1931 ft | 97 kts | 30° |
| 2026-04-28 20:30 | 41.35512 | 27.90115 | 2008 ft | 86 kts | 10° |
| 2026-04-28 20:31 | 41.36023 | 27.90105 | 2008 ft | 61 kts | 5° |
| 2026-04-28 20:31 | 41.36534 | 27.89982 | 1949 ft | 66 kts | 353° |
| 2026-04-28 20:31 | 41.36989 | 27.89738 | 1834 ft | 90 kts | 338° |
| 2026-04-28 20:31 | 41.37535 | 27.89258 | 2022 ft | 98 kts | 329° |
| 2026-04-28 20:32 | 41.38009 | 27.89513 | 2111 ft | 97 kts | 97° |
| 2026-04-28 20:32 | 41.37932 | 27.89818 | 2231 ft | 50 kts | 200° |
| 2026-04-28 20:32 | 41.37347 | 27.89115 | 2067 ft | 125 kts | 262° |
| 2026-04-28 20:32 | 41.37257 | 27.87916 | 1585 ft | 127 kts | 257° |
| 2026-04-28 20:33 | 41.37139 | 27.86597 | 1032 ft | 140 kts | 297° |
| 2026-04-28 20:33 | 41.37577 | 27.85620 | 1399 ft | 111 kts | 295° |
| 2026-04-28 20:33 | 41.37680 | 27.84560 | 1508 ft | 116 kts | 267° |
| 2026-04-28 20:33 | 41.37469 | 27.83513 | 1620 ft | 120 kts | 252° |
| 2026-04-28 20:34 | 41.37010 | 27.82592 | 1769 ft | 120 kts | 230° |
| 2026-04-28 20:34 | 41.36499 | 27.81704 | 1895 ft | 122 kts | 230° |
| 2026-04-28 20:34 | 41.35980 | 27.80789 | 1972 ft | 127 kts | 231° |
| 2026-04-28 20:34 | 41.35429 | 27.79824 | 1970 ft | 133 kts | 231° |
| 2026-04-28 20:35 | 41.34864 | 27.78834 | 1973 ft | 134 kts | 231° |
| 2026-04-28 20:35 | 41.34302 | 27.77852 | 1972 ft | 134 kts | 231° |
| 2026-04-28 20:35 | 41.33737 | 27.76867 | 1972 ft | 134 kts | 231° |
| 2026-04-28 20:35 | 41.33108 | 27.75971 | 1969 ft | 132 kts | 210° |
| 2026-04-28 20:36 | 41.32305 | 27.75400 | 1978 ft | 131 kts | 202° |
| 2026-04-28 20:36 | 41.31483 | 27.74873 | 1981 ft | 131 kts | 202° |
| 2026-04-28 20:36 | 41.30645 | 27.74404 | 1970 ft | 129 kts | 185° |
| 2026-04-28 20:36 | 41.29817 | 27.74647 | 1972 ft | 121 kts | 144° |
| 2026-04-28 20:37 | 41.29112 | 27.75304 | 1854 ft | 126 kts | 134° |
| 2026-04-28 20:37 | 41.28559 | 27.76208 | 1724 ft | 128 kts | 123° |
| 2026-04-28 20:37 | 41.28035 | 27.77183 | 1584 ft | 129 kts | 122° |
| 2026-04-28 20:37 | 41.27520 | 27.78153 | 1492 ft | 127 kts | 122° |
| 2026-04-28 20:38 | 41.27024 | 27.79085 | 1490 ft | 122 kts | 122° |
| 2026-04-28 20:38 | 41.26538 | 27.79998 | 1494 ft | 120 kts | 122° |
| 2026-04-28 20:38 | 41.26065 | 27.80890 | 1495 ft | 118 kts | 122° |
| 2026-04-28 20:38 | 41.25590 | 27.81788 | 1495 ft | 118 kts | 122° |
| 2026-04-28 20:39 | 41.25123 | 27.82672 | 1491 ft | 117 kts | 122° |
| 2026-04-28 20:39 | 41.24652 | 27.83553 | 1499 ft | 117 kts | 122° |
| 2026-04-28 20:39 | 41.24154 | 27.84417 | 1488 ft | 119 kts | 135° |
| 2026-04-28 20:39 | 41.23680 | 27.84812 | 1497 ft | 121 kts | 148° |
| 2026-04-28 20:40 | 41.22923 | 27.85313 | 1499 ft | 122 kts | 150° |
| 2026-04-28 20:40 | 41.22148 | 27.85816 | 1502 ft | 122 kts | 150° |
| 2026-04-28 20:40 | 41.21385 | 27.86310 | 1497 ft | 122 kts | 150° |
| 2026-04-28 20:40 | 41.20624 | 27.86800 | 1493 ft | 122 kts | 150° |
| 2026-04-28 20:41 | 41.19852 | 27.87293 | 1497 ft | 123 kts | 150° |
| 2026-04-28 20:41 | 41.19085 | 27.87787 | 1493 ft | 123 kts | 150° |
| 2026-04-28 20:41 | 41.18312 | 27.88289 | 1495 ft | 124 kts | 150° |
| 2026-04-28 20:41 | 41.17537 | 27.88796 | 1493 ft | 125 kts | 150° |
| 2026-04-28 20:42 | 41.16688 | 27.89056 | 1485 ft | 129 kts | 183° |
| 2026-04-28 20:42 | 41.15870 | 27.88499 | 1490 ft | 133 kts | 224° |
| 2026-04-28 20:42 | 41.15265 | 27.87580 | 1493 ft | 131 kts | 229° |
| 2026-04-28 20:42 | 41.14686 | 27.86651 | 1490 ft | 129 kts | 229° |
| 2026-04-28 20:43 | 41.14136 | 27.85757 | 1474 ft | 121 kts | 230° |
| 2026-04-28 20:43 | 41.13653 | 27.84974 | 1398 ft | 96 kts | 229° |
| 2026-04-28 20:43 | 41.13247 | 27.84333 | 1330 ft | 87 kts | 229° |
| 2026-04-28 20:43 | 41.12737 | 27.84027 | 1232 ft | 88 kts | 163° |
| 2026-04-28 20:44 | 41.12144 | 27.84464 | 1255 ft | 107 kts | 130° |
| 2026-04-28 20:44 | 41.11728 | 27.85249 | 1334 ft | 107 kts | 105° |
| 2026-04-28 20:44 | 41.11585 | 27.86152 | 1410 ft | 94 kts | 91° |
| 2026-04-28 20:44 | 41.11638 | 27.86962 | 1348 ft | 87 kts | 76° |
| 2026-04-28 20:45 | 41.11745 | 27.87692 | 1213 ft | 74 kts | 75° |
| 2026-04-28 20:45 | 41.11848 | 27.88334 | 1012 ft | 70 kts | 69° |
| 2026-04-28 20:45 | 41.11994 | 27.88940 | 893 ft | 67 kts | 63° |
| 2026-04-28 20:45 | 41.12223 | 27.89442 | 813 ft | 61 kts | 45° |
| 2026-04-28 20:46 | 41.12504 | 27.89858 | 729 ft | 59 kts | 43° |
| 2026-04-28 20:46 | 41.12775 | 27.90276 | 628 ft | 61 kts | 46° |
| 2026-04-28 20:46 | 41.13051 | 27.90705 | 538 ft | 59 kts | 41° |
| 2026-04-28 20:46 | 41.13274 | 27.91048 | 520 ft | 36 kts | 60° |
| 2026-04-28 20:47 | 41.13252 | 27.91245 | 520 ft | 17 kts | 140° |
| 2026-04-28 20:47 | 41.13179 | 27.91316 | 519 ft | 6 kts | 169° |
| 2026-04-28 20:47 | 41.13137 | 27.91304 | 519 ft | 5 kts | 203° |
| 2026-04-28 20:47 | 41.13124 | 27.91313 | 519 ft | 0 kts | 158° |